sensor_id;sensor_type;location;lat;lon;timestamp;pressure;altitude;pressure_sealevel;temperature;humidity
78431;BME280;67727;50.236;22.452;2023-03-14T00:01:17;98652.25;;;7.32;54.73
78431;BME280;67727;50.236;22.452;2023-03-14T00:03:47;98644.14;;;7.34;54.30
78431;BME280;67727;50.236;22.452;2023-03-14T00:06:15;98633.90;;;7.36;54.62
78431;BME280;67727;50.236;22.452;2023-03-14T00:08:42;98635.23;;;7.36;54.53
78431;BME280;67727;50.236;22.452;2023-03-14T00:11:19;98632.73;;;7.37;54.44
78431;BME280;67727;50.236;22.452;2023-03-14T00:13:50;98625.08;;;7.38;54.56
78431;BME280;67727;50.236;22.452;2023-03-14T00:16:17;98627.70;;;7.40;54.32
78431;BME280;67727;50.236;22.452;2023-03-14T00:18:45;98631.47;;;7.42;54.05
78431;BME280;67727;50.236;22.452;2023-03-14T00:21:12;98631.96;;;7.42;54.33
78431;BME280;67727;50.236;22.452;2023-03-14T00:23:40;98632.48;;;7.41;54.45
78431;BME280;67727;50.236;22.452;2023-03-14T00:26:13;98631.92;;;7.40;54.10
78431;BME280;67727;50.236;22.452;2023-03-14T00:28:41;98628.71;;;7.41;53.93
78431;BME280;67727;50.236;22.452;2023-03-14T00:31:11;98623.41;;;7.43;53.90
78431;BME280;67727;50.236;22.452;2023-03-14T00:33:38;98625.58;;;7.44;53.89
78431;BME280;67727;50.236;22.452;2023-03-14T00:36:08;98628.86;;;7.45;53.90
78431;BME280;67727;50.236;22.452;2023-03-14T00:38:36;98633.59;;;7.43;54.05
78431;BME280;67727;50.236;22.452;2023-03-14T00:41:12;98630.29;;;7.41;54.00
78431;BME280;67727;50.236;22.452;2023-03-14T00:43:39;98624.65;;;7.40;53.93
78431;BME280;67727;50.236;22.452;2023-03-14T00:46:07;98615.91;;;7.38;54.10
78431;BME280;67727;50.236;22.452;2023-03-14T00:48:35;98595.79;;;7.36;54.10
78431;BME280;67727;50.236;22.452;2023-03-14T00:51:04;98580.56;;;7.34;53.90
78431;BME280;67727;50.236;22.452;2023-03-14T00:53:35;98574.10;;;7.33;54.00
78431;BME280;67727;50.236;22.452;2023-03-14T00:56:08;98577.73;;;7.35;53.85
78431;BME280;67727;50.236;22.452;2023-03-14T00:58:35;98586.27;;;7.38;53.75
78431;BME280;67727;50.236;22.452;2023-03-14T01:01:13;98582.10;;;7.39;53.69
78431;BME280;67727;50.236;22.452;2023-03-14T01:03:41;98575.96;;;7.39;53.88
78431;BME280;67727;50.236;22.452;2023-03-14T01:06:10;98572.87;;;7.36;53.85
78431;BME280;67727;50.236;22.452;2023-03-14T01:08:38;98557.67;;;7.34;54.03
78431;BME280;67727;50.236;22.452;2023-03-14T01:11:10;98552.71;;;7.30;54.23
78431;BME280;67727;50.236;22.452;2023-03-14T01:13:39;98552.86;;;7.27;53.83
78431;BME280;67727;50.236;22.452;2023-03-14T01:16:08;98549.27;;;7.30;53.50
78431;BME280;67727;50.236;22.452;2023-03-14T01:18:36;98538.97;;;7.30;53.99
78431;BME280;67727;50.236;22.452;2023-03-14T01:21:04;98541.03;;;7.29;54.07
78431;BME280;67727;50.236;22.452;2023-03-14T01:23:35;98534.66;;;7.28;53.73
78431;BME280;67727;50.236;22.452;2023-03-14T01:26:02;98526.63;;;7.28;53.63
78431;BME280;67727;50.236;22.452;2023-03-14T01:28:29;98519.21;;;7.28;53.90
78431;BME280;67727;50.236;22.452;2023-03-14T01:31:03;98515.59;;;7.26;53.55
78431;BME280;67727;50.236;22.452;2023-03-14T01:33:30;98506.92;;;7.28;53.26
78431;BME280;67727;50.236;22.452;2023-03-14T01:35:58;98497.65;;;7.29;53.28
78431;BME280;67727;50.236;22.452;2023-03-14T01:38:25;98496.30;;;7.29;53.09
78431;BME280;67727;50.236;22.452;2023-03-14T01:40:52;98492.33;;;7.28;53.22
78431;BME280;67727;50.236;22.452;2023-03-14T01:43:19;98487.13;;;7.27;52.87
78431;BME280;67727;50.236;22.452;2023-03-14T01:48:36;98485.20;;;7.30;52.46
78431;BME280;67727;50.236;22.452;2023-03-14T01:51:06;98483.38;;;7.30;52.65
78431;BME280;67727;50.236;22.452;2023-03-14T01:53:37;98485.90;;;7.30;52.10
78431;BME280;67727;50.236;22.452;2023-03-14T01:56:06;98490.41;;;7.32;52.17
78431;BME280;67727;50.236;22.452;2023-03-14T01:58:33;98499.34;;;7.34;51.87
78431;BME280;67727;50.236;22.452;2023-03-14T02:01:02;98498.75;;;7.38;51.88
78431;BME280;67727;50.236;22.452;2023-03-14T02:03:31;98494.98;;;7.40;51.91
78431;BME280;67727;50.236;22.452;2023-03-14T02:06:06;98490.62;;;7.42;51.99
78431;BME280;67727;50.236;22.452;2023-03-14T02:08:35;98493.64;;;7.45;51.97
78431;BME280;67727;50.236;22.452;2023-03-14T02:11:04;98492.26;;;7.46;52.23
78431;BME280;67727;50.236;22.452;2023-03-14T02:13:31;98495.21;;;7.47;52.08
78431;BME280;67727;50.236;22.452;2023-03-14T02:15:58;98496.21;;;7.50;51.65
78431;BME280;67727;50.236;22.452;2023-03-14T02:18:25;98491.02;;;7.53;51.47
78431;BME280;67727;50.236;22.452;2023-03-14T02:26:38;98467.17;;;7.66;51.18
78431;BME280;67727;50.236;22.452;2023-03-14T02:29:07;98465.54;;;7.72;51.23
78431;BME280;67727;50.236;22.452;2023-03-14T02:31:35;98454.36;;;7.76;51.33
78431;BME280;67727;50.236;22.452;2023-03-14T02:34:02;98442.77;;;7.78;51.13
78431;BME280;67727;50.236;22.452;2023-03-14T02:36:30;98439.69;;;7.80;51.21
78431;BME280;67727;50.236;22.452;2023-03-14T02:39:16;98433.40;;;7.81;51.13
78431;BME280;67727;50.236;22.452;2023-03-14T02:41:48;98426.50;;;7.82;51.12
78431;BME280;67727;50.236;22.452;2023-03-14T02:44:15;98422.64;;;7.82;51.18
78431;BME280;67727;50.236;22.452;2023-03-14T02:46:42;98412.50;;;7.80;51.10
78431;BME280;67727;50.236;22.452;2023-03-14T02:49:14;98403.40;;;7.80;51.20
78431;BME280;67727;50.236;22.452;2023-03-14T02:51:43;98388.27;;;7.80;51.16
78431;BME280;67727;50.236;22.452;2023-03-14T02:54:12;98387.78;;;7.81;50.77
78431;BME280;67727;50.236;22.452;2023-03-14T02:56:41;98389.98;;;7.83;50.67
78431;BME280;67727;50.236;22.452;2023-03-14T02:59:08;98391.33;;;7.84;50.66
78431;BME280;67727;50.236;22.452;2023-03-14T03:01:35;98388.55;;;7.86;50.73
78431;BME280;67727;50.236;22.452;2023-03-14T03:04:02;98388.23;;;7.86;50.65
78431;BME280;67727;50.236;22.452;2023-03-14T03:06:29;98389.80;;;7.85;50.67
78431;BME280;67727;50.236;22.452;2023-03-14T03:08:57;98385.48;;;7.85;50.47
78431;BME280;67727;50.236;22.452;2023-03-14T03:11:24;98380.37;;;7.85;50.52
78431;BME280;67727;50.236;22.452;2023-03-14T03:13:51;98377.93;;;7.85;50.63
78431;BME280;67727;50.236;22.452;2023-03-14T03:16:18;98371.92;;;7.83;50.61
78431;BME280;67727;50.236;22.452;2023-03-14T03:18:45;98368.91;;;7.82;50.59
78431;BME280;67727;50.236;22.452;2023-03-14T03:21:12;98364.21;;;7.83;49.98
78431;BME280;67727;50.236;22.452;2023-03-14T03:23:39;98364.77;;;7.86;49.84
78431;BME280;67727;50.236;22.452;2023-03-14T03:26:06;98360.69;;;7.88;50.26
78431;BME280;67727;50.236;22.452;2023-03-14T03:28:35;98361.16;;;7.87;50.18
78431;BME280;67727;50.236;22.452;2023-03-14T03:31:10;98357.27;;;7.87;49.96
78431;BME280;67727;50.236;22.452;2023-03-14T03:33:38;98344.58;;;7.87;49.86
78431;BME280;67727;50.236;22.452;2023-03-14T03:36:05;98342.95;;;7.89;49.69
78431;BME280;67727;50.236;22.452;2023-03-14T03:38:33;98331.18;;;7.89;50.08
78431;BME280;67727;50.236;22.452;2023-03-14T03:41:03;98336.25;;;7.88;50.15
78431;BME280;67727;50.236;22.452;2023-03-14T03:43:31;98341.94;;;7.87;50.06
78431;BME280;67727;50.236;22.452;2023-03-14T03:46:02;98337.49;;;7.86;49.91
78431;BME280;67727;50.236;22.452;2023-03-14T03:48:29;98331.55;;;7.86;49.90
78431;BME280;67727;50.236;22.452;2023-03-14T03:50:56;98324.52;;;7.86;49.92
78431;BME280;67727;50.236;22.452;2023-03-14T03:53:24;98311.98;;;7.86;50.00
78431;BME280;67727;50.236;22.452;2023-03-14T03:55:51;98304.39;;;7.86;49.46
78431;BME280;67727;50.236;22.452;2023-03-14T03:58:18;98304.44;;;7.89;49.20
78431;BME280;67727;50.236;22.452;2023-03-14T04:00:45;98304.67;;;7.93;49.11
78431;BME280;67727;50.236;22.452;2023-03-14T04:03:12;98307.34;;;7.98;48.53
78431;BME280;67727;50.236;22.452;2023-03-14T04:05:39;98299.45;;;8.05;48.57
78431;BME280;67727;50.236;22.452;2023-03-14T04:08:06;98300.02;;;8.09;48.47
78431;BME280;67727;50.236;22.452;2023-03-14T04:10:34;98297.61;;;8.11;48.53
78431;BME280;67727;50.236;22.452;2023-03-14T04:13:02;98296.11;;;8.11;48.15
78431;BME280;67727;50.236;22.452;2023-03-14T04:15:29;98286.20;;;8.13;48.15
78431;BME280;67727;50.236;22.452;2023-03-14T04:17:58;98275.07;;;8.14;48.34
78431;BME280;67727;50.236;22.452;2023-03-14T04:20:25;98266.38;;;8.13;48.26
78431;BME280;67727;50.236;22.452;2023-03-14T04:22:52;98264.75;;;8.12;48.48
78431;BME280;67727;50.236;22.452;2023-03-14T04:25:19;98258.59;;;8.10;48.47
78431;BME280;67727;50.236;22.452;2023-03-14T04:27:47;98258.52;;;8.08;48.50
78431;BME280;67727;50.236;22.452;2023-03-14T04:30:14;98253.07;;;8.06;48.62
78431;BME280;67727;50.236;22.452;2023-03-14T04:32:41;98251.83;;;8.03;48.96
78431;BME280;67727;50.236;22.452;2023-03-14T04:35:09;98250.27;;;8.00;48.53
78431;BME280;67727;50.236;22.452;2023-03-14T04:37:36;98247.39;;;7.99;48.64
78431;BME280;67727;50.236;22.452;2023-03-14T04:40:03;98236.99;;;8.00;48.22
78431;BME280;67727;50.236;22.452;2023-03-14T04:42:32;98233.80;;;8.01;48.10
78431;BME280;67727;50.236;22.452;2023-03-14T04:45:00;98228.23;;;8.03;48.36
78431;BME280;67727;50.236;22.452;2023-03-14T04:47:27;98229.48;;;8.06;48.00
78431;BME280;67727;50.236;22.452;2023-03-14T04:49:54;98227.54;;;8.09;48.16
78431;BME280;67727;50.236;22.452;2023-03-14T04:52:21;98229.16;;;8.11;48.14
78431;BME280;67727;50.236;22.452;2023-03-14T04:54:48;98225.67;;;8.12;47.75
78431;BME280;67727;50.236;22.452;2023-03-14T04:57:15;98227.81;;;8.13;47.95
78431;BME280;67727;50.236;22.452;2023-03-14T04:59:43;98226.71;;;8.15;47.92
78431;BME280;67727;50.236;22.452;2023-03-14T05:02:10;98224.77;;;8.18;47.69
78431;BME280;67727;50.236;22.452;2023-03-14T05:04:37;98219.95;;;8.21;47.78
78431;BME280;67727;50.236;22.452;2023-03-14T05:07:04;98207.41;;;8.24;47.18
78431;BME280;67727;50.236;22.452;2023-03-14T05:09:32;98215.39;;;8.29;46.93
78431;BME280;67727;50.236;22.452;2023-03-14T05:11:59;98216.78;;;8.33;47.70
78431;BME280;67727;50.236;22.452;2023-03-14T05:14:26;98211.27;;;8.34;47.78
78431;BME280;67727;50.236;22.452;2023-03-14T05:16:53;98207.80;;;8.36;47.54
78431;BME280;67727;50.236;22.452;2023-03-14T05:19:20;98207.81;;;8.39;47.30
78431;BME280;67727;50.236;22.452;2023-03-14T05:21:47;98208.88;;;8.43;47.47
78431;BME280;67727;50.236;22.452;2023-03-14T05:24:14;98207.79;;;8.46;47.59
78431;BME280;67727;50.236;22.452;2023-03-14T05:26:41;98203.00;;;8.49;47.75
78431;BME280;67727;50.236;22.452;2023-03-14T05:29:08;98203.20;;;8.50;47.71
78431;BME280;67727;50.236;22.452;2023-03-14T05:31:35;98194.84;;;8.52;47.69
78431;BME280;67727;50.236;22.452;2023-03-14T05:34:03;98197.05;;;8.56;47.95
78431;BME280;67727;50.236;22.452;2023-03-14T05:36:30;98195.29;;;8.58;47.50
78431;BME280;67727;50.236;22.452;2023-03-14T05:38:57;98194.30;;;8.60;48.00
78431;BME280;67727;50.236;22.452;2023-03-14T05:41:24;98199.50;;;8.62;47.90
78431;BME280;67727;50.236;22.452;2023-03-14T05:43:51;98194.38;;;8.65;48.10
78431;BME280;67727;50.236;22.452;2023-03-14T05:46:18;98191.87;;;8.68;47.75
78431;BME280;67727;50.236;22.452;2023-03-14T05:48:45;98187.58;;;8.72;47.79
78431;BME280;67727;50.236;22.452;2023-03-14T05:51:12;98180.00;;;8.75;47.76
78431;BME280;67727;50.236;22.452;2023-03-14T05:53:39;98184.98;;;8.77;48.40
78431;BME280;67727;50.236;22.452;2023-03-14T05:56:07;98185.02;;;8.79;47.54
78431;BME280;67727;50.236;22.452;2023-03-14T05:58:34;98185.34;;;8.81;47.92
78431;BME280;67727;50.236;22.452;2023-03-14T06:01:02;98186.07;;;8.85;47.99
78431;BME280;67727;50.236;22.452;2023-03-14T06:03:30;98189.48;;;8.90;48.16
78431;BME280;67727;50.236;22.452;2023-03-14T06:05:57;98201.55;;;8.96;48.11
78431;BME280;67727;50.236;22.452;2023-03-14T06:08:24;98198.55;;;9.03;47.91
78431;BME280;67727;50.236;22.452;2023-03-14T06:10:52;98201.48;;;9.11;47.61
78431;BME280;67727;50.236;22.452;2023-03-14T06:13:20;98202.47;;;9.21;47.63
78431;BME280;67727;50.236;22.452;2023-03-14T06:15:47;98202.45;;;9.32;47.92
78431;BME280;67727;50.236;22.452;2023-03-14T06:18:14;98200.77;;;9.40;47.81
78431;BME280;67727;50.236;22.452;2023-03-14T06:20:41;98200.43;;;9.48;47.50
78431;BME280;67727;50.236;22.452;2023-03-14T06:23:09;98200.78;;;9.57;47.32
78431;BME280;67727;50.236;22.452;2023-03-14T06:25:36;98196.61;;;9.67;46.51
78431;BME280;67727;50.236;22.452;2023-03-14T06:28:04;98196.54;;;9.78;46.87
78431;BME280;67727;50.236;22.452;2023-03-14T06:30:31;98195.20;;;9.88;46.82
78431;BME280;67727;50.236;22.452;2023-03-14T06:32:58;98196.03;;;9.96;46.56
78431;BME280;67727;50.236;22.452;2023-03-14T06:35:25;98192.22;;;10.03;46.05
78431;BME280;67727;50.236;22.452;2023-03-14T06:37:52;98197.80;;;10.10;46.30
78431;BME280;67727;50.236;22.452;2023-03-14T06:40:19;98195.34;;;10.17;46.29
78431;BME280;67727;50.236;22.452;2023-03-14T06:42:47;98191.02;;;10.24;46.04
78431;BME280;67727;50.236;22.452;2023-03-14T06:45:14;98193.53;;;10.33;45.70
78431;BME280;67727;50.236;22.452;2023-03-14T06:47:41;98193.87;;;10.46;46.03
78431;BME280;67727;50.236;22.452;2023-03-14T06:50:09;98186.61;;;10.60;45.97
78431;BME280;67727;50.236;22.452;2023-03-14T06:52:37;98184.08;;;10.74;45.31
78431;BME280;67727;50.236;22.452;2023-03-14T06:55:04;98179.41;;;10.88;45.75
78431;BME280;67727;50.236;22.452;2023-03-14T06:57:31;98178.92;;;11.02;45.49
78431;BME280;67727;50.236;22.452;2023-03-14T06:59:58;98180.21;;;11.18;45.08
78431;BME280;67727;50.236;22.452;2023-03-14T07:02:25;98184.63;;;11.32;44.66
78431;BME280;67727;50.236;22.452;2023-03-14T07:04:52;98189.30;;;11.46;44.44
78431;BME280;67727;50.236;22.452;2023-03-14T07:07:19;98186.80;;;11.61;44.56
78431;BME280;67727;50.236;22.452;2023-03-14T07:09:46;98184.76;;;11.77;44.49
78431;BME280;67727;50.236;22.452;2023-03-14T07:12:13;98180.48;;;11.90;43.74
78431;BME280;67727;50.236;22.452;2023-03-14T07:14:41;98169.67;;;12.00;44.19
78431;BME280;67727;50.236;22.452;2023-03-14T07:17:08;98163.90;;;12.14;44.17
78431;BME280;67727;50.236;22.452;2023-03-14T07:19:35;98159.90;;;12.36;44.50
78431;BME280;67727;50.236;22.452;2023-03-14T07:22:02;98160.16;;;12.60;44.06
78431;BME280;67727;50.236;22.452;2023-03-14T07:24:29;98157.52;;;12.84;43.45
78431;BME280;67727;50.236;22.452;2023-03-14T07:26:56;98151.17;;;13.06;43.23
78431;BME280;67727;50.236;22.452;2023-03-14T07:29:23;98156.70;;;13.27;43.09
78431;BME280;67727;50.236;22.452;2023-03-14T07:31:50;98158.91;;;13.48;42.53
78431;BME280;67727;50.236;22.452;2023-03-14T07:34:17;98153.47;;;13.62;41.69
78431;BME280;67727;50.236;22.452;2023-03-14T07:36:46;98162.78;;;13.74;41.42
78431;BME280;67727;50.236;22.452;2023-03-14T07:39:13;98158.73;;;13.80;40.31
78431;BME280;67727;50.236;22.452;2023-03-14T07:41:40;98160.48;;;13.79;39.93
78431;BME280;67727;50.236;22.452;2023-03-14T07:44:07;98160.90;;;13.78;40.35
78431;BME280;67727;50.236;22.452;2023-03-14T07:46:34;98159.27;;;13.81;40.83
78431;BME280;67727;50.236;22.452;2023-03-14T07:49:01;98152.47;;;13.88;41.22
78431;BME280;67727;50.236;22.452;2023-03-14T07:51:28;98148.15;;;13.96;40.98
78431;BME280;67727;50.236;22.452;2023-03-14T07:53:55;98145.55;;;14.05;41.07
78431;BME280;67727;50.236;22.452;2023-03-14T07:56:23;98139.42;;;14.10;39.71
78431;BME280;67727;50.236;22.452;2023-03-14T07:58:50;98127.44;;;14.16;40.19
78431;BME280;67727;50.236;22.452;2023-03-14T08:01:17;98118.17;;;14.25;40.24
78431;BME280;67727;50.236;22.452;2023-03-14T08:03:44;98113.69;;;14.37;40.47
78431;BME280;67727;50.236;22.452;2023-03-14T08:06:11;98116.09;;;14.51;40.57
78431;BME280;67727;50.236;22.452;2023-03-14T08:08:38;98120.02;;;14.65;39.74
78431;BME280;67727;50.236;22.452;2023-03-14T08:11:06;98120.20;;;14.76;39.32
78431;BME280;67727;50.236;22.452;2023-03-14T08:13:38;98114.89;;;14.88;39.55
78431;BME280;67727;50.236;22.452;2023-03-14T08:16:06;98116.93;;;15.07;40.32
78431;BME280;67727;50.236;22.452;2023-03-14T08:18:33;98109.05;;;15.22;39.38
78431;BME280;67727;50.236;22.452;2023-03-14T08:21:00;98102.90;;;15.34;39.82
78431;BME280;67727;50.236;22.452;2023-03-14T08:23:28;98102.98;;;15.46;38.83
78431;BME280;67727;50.236;22.452;2023-03-14T08:25:55;98091.11;;;15.54;38.79
78431;BME280;67727;50.236;22.452;2023-03-14T08:28:22;98098.67;;;15.60;39.36
78431;BME280;67727;50.236;22.452;2023-03-14T08:30:49;98080.55;;;15.56;38.67
78431;BME280;67727;50.236;22.452;2023-03-14T08:33:16;98077.91;;;15.53;38.81
78431;BME280;67727;50.236;22.452;2023-03-14T08:35:44;98065.54;;;15.50;38.00
78431;BME280;67727;50.236;22.452;2023-03-14T08:38:11;98069.20;;;15.36;38.84
78431;BME280;67727;50.236;22.452;2023-03-14T08:40:38;98077.23;;;15.23;39.29
78431;BME280;67727;50.236;22.452;2023-03-14T08:43:05;98079.88;;;15.09;39.27
78431;BME280;67727;50.236;22.452;2023-03-14T08:45:32;98078.34;;;14.99;40.00
78431;BME280;67727;50.236;22.452;2023-03-14T08:47:59;98080.94;;;14.90;39.60
78431;BME280;67727;50.236;22.452;2023-03-14T08:50:26;98078.70;;;14.83;40.19
78431;BME280;67727;50.236;22.452;2023-03-14T08:52:53;98086.91;;;14.82;40.32
78431;BME280;67727;50.236;22.452;2023-03-14T08:55:20;98083.49;;;14.97;40.83
78431;BME280;67727;50.236;22.452;2023-03-14T08:57:48;98082.31;;;15.15;40.80
78431;BME280;67727;50.236;22.452;2023-03-14T09:00:15;98078.17;;;15.28;40.82
78431;BME280;67727;50.236;22.452;2023-03-14T09:02:43;98071.39;;;15.36;40.40
78431;BME280;67727;50.236;22.452;2023-03-14T09:05:11;98079.61;;;15.43;40.68
78431;BME280;67727;50.236;22.452;2023-03-14T09:07:39;98076.15;;;15.54;40.52
78431;BME280;67727;50.236;22.452;2023-03-14T09:10:08;98079.21;;;15.69;40.72
78431;BME280;67727;50.236;22.452;2023-03-14T09:12:35;98059.21;;;15.93;40.73
78431;BME280;67727;50.236;22.452;2023-03-14T09:15:03;98049.56;;;16.17;40.61
78431;BME280;67727;50.236;22.452;2023-03-14T09:17:30;98042.11;;;16.39;40.43
78431;BME280;67727;50.236;22.452;2023-03-14T09:19:57;98041.98;;;16.53;39.31
78431;BME280;67727;50.236;22.452;2023-03-14T09:22:24;98037.75;;;16.61;38.86
78431;BME280;67727;50.236;22.452;2023-03-14T09:24:51;98037.20;;;16.66;38.60
78431;BME280;67727;50.236;22.452;2023-03-14T09:27:18;98033.65;;;16.69;38.90
78431;BME280;67727;50.236;22.452;2023-03-14T09:29:45;98036.88;;;16.70;39.28
78431;BME280;67727;50.236;22.452;2023-03-14T09:32:12;98038.11;;;16.70;39.64
78431;BME280;67727;50.236;22.452;2023-03-14T09:34:39;98040.25;;;16.70;39.72
78431;BME280;67727;50.236;22.452;2023-03-14T09:37:07;98037.52;;;16.67;39.24
78431;BME280;67727;50.236;22.452;2023-03-14T09:39:34;98034.92;;;16.62;39.21
78431;BME280;67727;50.236;22.452;2023-03-14T09:42:04;98031.66;;;16.64;40.05
78431;BME280;67727;50.236;22.452;2023-03-14T09:44:35;98033.66;;;16.70;40.50
78431;BME280;67727;50.236;22.452;2023-03-14T09:47:11;98039.00;;;16.76;40.17
78431;BME280;67727;50.236;22.452;2023-03-14T09:49:40;98044.34;;;16.79;39.85
78431;BME280;67727;50.236;22.452;2023-03-14T09:54:53;98040.80;;;16.86;38.71
78431;BME280;67727;50.236;22.452;2023-03-14T09:57:25;98039.79;;;16.97;38.87
78431;BME280;67727;50.236;22.452;2023-03-14T09:59:56;98037.23;;;17.08;39.16
78431;BME280;67727;50.236;22.452;2023-03-14T10:02:27;98034.14;;;17.20;38.68
78431;BME280;67727;50.236;22.452;2023-03-14T10:04:55;98036.13;;;17.22;38.07
78431;BME280;67727;50.236;22.452;2023-03-14T10:07:29;98036.94;;;17.24;39.00
78431;BME280;67727;50.236;22.452;2023-03-14T10:09:57;98041.23;;;17.29;38.00
78431;BME280;67727;50.236;22.452;2023-03-14T10:12:32;98049.91;;;17.26;38.69
78431;BME280;67727;50.236;22.452;2023-03-14T10:15:08;98054.00;;;17.19;39.07
78431;BME280;67727;50.236;22.452;2023-03-14T10:17:46;98054.44;;;17.10;38.72
78431;BME280;67727;50.236;22.452;2023-03-14T10:20:28;98054.66;;;16.96;38.79
78431;BME280;67727;50.236;22.452;2023-03-14T10:23:05;98050.45;;;16.83;38.96
78431;BME280;67727;50.236;22.452;2023-03-14T10:25:35;98048.16;;;16.84;39.70
78431;BME280;67727;50.236;22.452;2023-03-14T10:28:03;98044.00;;;16.84;39.16
78431;BME280;67727;50.236;22.452;2023-03-14T10:30:45;98044.13;;;16.89;39.96
78431;BME280;67727;50.236;22.452;2023-03-14T10:33:20;98043.54;;;16.97;39.75
78431;BME280;67727;50.236;22.452;2023-03-14T10:35:56;98046.89;;;17.11;39.86
78431;BME280;67727;50.236;22.452;2023-03-14T10:38:27;98051.30;;;17.22;39.38
78431;BME280;67727;50.236;22.452;2023-03-14T10:40:55;98051.45;;;17.34;39.07
78431;BME280;67727;50.236;22.452;2023-03-14T10:43:35;98051.05;;;17.39;38.65
78431;BME280;67727;50.236;22.452;2023-03-14T10:46:09;98047.38;;;17.43;38.62
78431;BME280;67727;50.236;22.452;2023-03-14T10:48:38;98049.23;;;17.52;39.19
78431;BME280;67727;50.236;22.452;2023-03-14T10:53:48;98048.38;;;17.66;38.75
78431;BME280;67727;50.236;22.452;2023-03-14T10:56:21;98043.88;;;17.67;38.69
78431;BME280;67727;50.236;22.452;2023-03-14T10:58:54;98040.70;;;17.67;39.27
78431;BME280;67727;50.236;22.452;2023-03-14T11:01:28;98047.29;;;17.62;38.55
78431;BME280;67727;50.236;22.452;2023-03-14T11:04:13;98045.80;;;17.51;39.03
78431;BME280;67727;50.236;22.452;2023-03-14T11:09:45;98038.55;;;17.24;39.54
78431;BME280;67727;50.236;22.452;2023-03-14T11:15:26;98038.84;;;16.91;39.64
78431;BME280;67727;50.236;22.452;2023-03-14T11:23:08;98035.64;;;16.52;41.07
78431;BME280;67727;50.236;22.452;2023-03-14T11:28:50;98040.16;;;16.55;41.00
78431;BME280;67727;50.236;22.452;2023-03-14T11:31:26;98033.49;;;16.65;41.06
78431;BME280;67727;50.236;22.452;2023-03-14T11:36:46;98025.91;;;16.85;40.98
78431;BME280;67727;50.236;22.452;2023-03-14T11:39:17;98027.12;;;16.90;40.34
78431;BME280;67727;50.236;22.452;2023-03-14T11:41:53;98026.45;;;16.87;40.36
78431;BME280;67727;50.236;22.452;2023-03-14T11:44:29;98025.09;;;16.83;40.49
78431;BME280;67727;50.236;22.452;2023-03-14T11:47:05;98025.89;;;16.76;40.83
78431;BME280;67727;50.236;22.452;2023-03-14T11:49:47;98028.02;;;16.75;41.43
78431;BME280;67727;50.236;22.452;2023-03-14T11:52:19;98019.05;;;16.77;41.21
78431;BME280;67727;50.236;22.452;2023-03-14T11:57:29;98022.03;;;16.74;41.00
78431;BME280;67727;50.236;22.452;2023-03-14T12:00:16;98032.21;;;16.76;41.27
78431;BME280;67727;50.236;22.452;2023-03-14T12:05:43;98020.09;;;16.87;40.28
78431;BME280;67727;50.236;22.452;2023-03-14T12:11:39;98012.39;;;16.90;39.99
78431;BME280;67727;50.236;22.452;2023-03-14T12:16:49;98003.48;;;16.93;40.47
78431;BME280;67727;50.236;22.452;2023-03-14T12:24:50;98000.05;;;17.03;39.84
78431;BME280;67727;50.236;22.452;2023-03-14T12:27:40;98005.10;;;16.96;39.91
78431;BME280;67727;50.236;22.452;2023-03-14T12:35:41;98003.56;;;16.99;40.69
78431;BME280;67727;50.236;22.452;2023-03-14T12:38:13;98001.73;;;17.07;41.15
78431;BME280;67727;50.236;22.452;2023-03-14T12:43:30;98000.49;;;17.09;40.08
78431;BME280;67727;50.236;22.452;2023-03-14T12:48:38;97997.09;;;16.92;40.84
78431;BME280;67727;50.236;22.452;2023-03-14T12:51:20;97991.45;;;16.86;40.45
78431;BME280;67727;50.236;22.452;2023-03-14T12:59:39;97980.18;;;16.75;40.69
78431;BME280;67727;50.236;22.452;2023-03-14T13:02:27;97979.32;;;16.71;41.03
78431;BME280;67727;50.236;22.452;2023-03-14T13:05:16;97976.20;;;16.66;41.22
78431;BME280;67727;50.236;22.452;2023-03-14T13:10:31;97973.23;;;16.47;40.89
78431;BME280;67727;50.236;22.452;2023-03-14T13:13:21;97971.85;;;16.40;41.57
78431;BME280;67727;50.236;22.452;2023-03-14T13:15:54;97965.34;;;16.35;42.09
78431;BME280;67727;50.236;22.452;2023-03-14T13:18:33;97961.59;;;16.33;41.35
78431;BME280;67727;50.236;22.452;2023-03-14T13:24:04;97958.39;;;16.36;42.23
78431;BME280;67727;50.236;22.452;2023-03-14T13:26:35;97966.33;;;16.45;42.58
78431;BME280;67727;50.236;22.452;2023-03-14T13:29:32;97973.70;;;16.53;42.15
78431;BME280;67727;50.236;22.452;2023-03-14T13:32:02;97970.46;;;16.55;41.85
78431;BME280;67727;50.236;22.452;2023-03-14T13:34:31;97979.27;;;16.46;41.47
78431;BME280;67727;50.236;22.452;2023-03-14T13:36:59;97975.02;;;16.27;41.12
78431;BME280;67727;50.236;22.452;2023-03-14T13:39:28;97975.25;;;16.10;41.75
78431;BME280;67727;50.236;22.452;2023-03-14T13:42:00;97977.46;;;15.95;42.02
78431;BME280;67727;50.236;22.452;2023-03-14T13:44:34;97986.72;;;15.85;42.86
78431;BME280;67727;50.236;22.452;2023-03-14T13:47:03;97984.73;;;15.79;42.79
78431;BME280;67727;50.236;22.452;2023-03-14T13:49:33;97987.14;;;15.74;42.90
78431;BME280;67727;50.236;22.452;2023-03-14T13:52:02;97988.80;;;15.69;43.13
78431;BME280;67727;50.236;22.452;2023-03-14T13:54:30;97997.92;;;15.68;43.10
78431;BME280;67727;50.236;22.452;2023-03-14T13:57:02;97990.15;;;15.64;43.18
78431;BME280;67727;50.236;22.452;2023-03-14T13:59:32;97994.17;;;15.62;43.35
78431;BME280;67727;50.236;22.452;2023-03-14T14:02:03;97992.01;;;15.61;43.87
78431;BME280;67727;50.236;22.452;2023-03-14T14:04:33;97993.77;;;15.60;43.94
78431;BME280;67727;50.236;22.452;2023-03-14T14:07:08;98001.09;;;15.57;43.49
78431;BME280;67727;50.236;22.452;2023-03-14T14:09:40;98006.52;;;15.51;43.35
78431;BME280;67727;50.236;22.452;2023-03-14T14:12:13;98001.63;;;15.43;43.92
78431;BME280;67727;50.236;22.452;2023-03-14T14:15:04;98008.56;;;15.34;43.52
78431;BME280;67727;50.236;22.452;2023-03-14T14:17:41;98013.48;;;15.21;43.80